LVS weather

Las Vegas Municipal Airport
Las Vegas, New Mexico, United States

Public forecast

Using degrees Fahrenheit for public forecast. Weather courtesy of forecast.io.

Current aviation weather report (METAR) for Las Vegas Municipal Airport

Retrieved 2019/10/22 06:53 UTC (17 minutes ago):

KLVS 220653Z AUTO 13003KT 10SM CLR 00/M13 A3024 RMK AO2 SLP198 T00001128 401331017

Aviation forecast (TAF) for Las Vegas Municipal Airport

Retrieved 2019/10/22 06:24 UTC (46 minutes ago):

TAF KLVS 220523Z 2206/2306 VRB06KT P6SM SCT250 FM221300 18008KT P6SM SCT250 FM221800 20012G18KT P6SM SCT250 FM230100 25007KT P6SM SCT250